logo
Rechercher aéroport 
image banner adimage banner adimage banner ad
image banner ad

WPDB - Xanana Gusmao International Airport Suai

Situé à Suai, Timor-Leste

ICAO - WPDB, IATA - UAI

Données fournies par Airmate  

Information générale

Coordonnées: S9°17'43" E125°17'6"
Élévation : 120 feet MSL.
 
Voir autres Aéroports à Cova Lima

Données opérationnelles

Special qualification required
Heure actuelle UTC:
Heure actuelle locale:
Météo à : - ( 0 km )
METAR: KNFE 220736Z AUTO 00000KT 10SM CLR 16/14 A3003 RMK AO2 T01610139
Voir NOTAMs / SUP AIP / TFR affectant cet aéroport [VIEW]
Fréquences de communication: [VIEW]

Pistes:

Identifiant RWYQFULongueur (ft)Largeur (ft)SurfaceLDA (ft)
17492198UNK
35492198UNK

Coordonnées de l'aéroport

Adresse: Suai Timor-Leste

Vue satellite de WPDB